createdAt,value
2018-08-24T00:00:14.718Z,99779.30
2018-08-24T00:05:30.067Z,99795.13
2018-08-24T00:07:57.015Z,99794.15
2018-08-24T00:10:23.996Z,99784.57
2018-08-24T00:12:50.949Z,99778.34
2018-08-24T00:15:17.900Z,99776.47
2018-08-24T00:17:46.975Z,99770.06
2018-08-24T00:20:13.972Z,99775.94
2018-08-24T00:22:41.051Z,99775.66
2018-08-24T00:25:08.028Z,99778.20
2018-08-24T00:27:35.977Z,99779.66
2018-08-24T00:30:03.576Z,99779.44
2018-08-24T00:32:30.474Z,99787.53
2018-08-24T00:34:58.495Z,99783.77
2018-08-24T00:37:25.415Z,99785.49
2018-08-24T00:39:52.404Z,99780.72
2018-08-24T00:42:19.354Z,99779.37
2018-08-24T00:44:51.131Z,99773.08
2018-08-24T00:47:18.085Z,99765.62
2018-08-24T00:49:45.041Z,99760.62
2018-08-24T00:52:11.956Z,99763.92
2018-08-24T00:54:38.951Z,99765.27
2018-08-24T00:57:06.047Z,99761.89
2018-08-24T00:59:32.959Z,99763.78
2018-08-24T01:01:59.969Z,99762.91
2018-08-24T01:04:33.223Z,99763.12
2018-08-24T01:07:09.791Z,99757.23
2018-08-24T01:09:37.380Z,99762.86
2018-08-24T01:12:10.163Z,99766.26
2018-08-24T01:14:37.563Z,99765.89
2018-08-24T01:17:10.519Z,99766.71
2018-08-24T01:19:40.670Z,99767.72
2018-08-24T01:22:08.560Z,99767.56
2018-08-24T01:24:36.106Z,99772.42
2018-08-24T01:27:04.340Z,99773.08
2018-08-24T01:29:33.906Z,99774.33
2018-08-24T01:32:01.008Z,99771.82
2018-08-24T01:34:27.945Z,99775.85
2018-08-24T01:36:54.907Z,99784.69
2018-08-24T01:39:23.908Z,99783.20
2018-08-24T01:41:50.895Z,99783.08
2018-08-24T01:44:17.827Z,99791.80
2018-08-24T01:46:44.755Z,99780.39
2018-08-24T01:49:12.580Z,99776.28
2018-08-24T01:51:39.536Z,99776.67
2018-08-24T01:54:06.632Z,99776.95
2018-08-24T01:56:33.660Z,99785.09
2018-08-24T01:59:00.619Z,99780.03
2018-08-24T02:01:27.593Z,99780.58
2018-08-24T02:03:54.516Z,99775.55
2018-08-24T02:06:21.485Z,99785.63
2018-08-24T02:08:48.429Z,99787.13
2018-08-24T02:11:21.161Z,99788.34
2018-08-24T02:13:54.776Z,99781.67
2018-08-24T02:16:21.695Z,99781.75
2018-08-24T02:18:54.482Z,99778.89
2018-08-24T02:21:27.255Z,99775.77
2018-08-24T02:23:56.191Z,99776.15
2018-08-24T02:26:24.155Z,99778.13
2018-08-24T02:28:51.110Z,99775.64
2018-08-24T02:31:18.105Z,99770.46
2018-08-24T02:33:45.053Z,99766.40
2018-08-24T02:36:12.018Z,99758.36
2018-08-24T02:38:39.382Z,99760.66
2018-08-24T02:41:06.416Z,99764.94
2018-08-24T02:43:33.379Z,99769.54
2018-08-24T02:46:00.375Z,99767.09
2018-08-24T02:48:27.322Z,99763.13
2018-08-24T02:50:54.211Z,99767.23
2018-08-24T02:53:21.233Z,99774.49
2018-08-24T02:55:48.169Z,99776.84
2018-08-24T02:58:15.138Z,99772.12
2018-08-24T03:00:42.099Z,99766.82
2018-08-24T03:03:09.075Z,99766.72
2018-08-24T03:05:36.180Z,99756.55
2018-08-24T03:08:03.672Z,99755.31
2018-08-24T03:10:30.644Z,99756.92
2018-08-24T03:12:57.552Z,99756.27
2018-08-24T03:15:24.566Z,99758.58
2018-08-24T03:17:52.420Z,99756.97
2018-08-24T03:20:20.343Z,99761.88
2018-08-24T03:22:47.315Z,99769.21
2018-08-24T03:25:14.233Z,99769.06
2018-08-24T03:27:41.229Z,99778.08
2018-08-24T03:30:08.297Z,99773.53
2018-08-24T03:32:35.287Z,99771.63
2018-08-24T03:35:02.260Z,99772.62
2018-08-24T03:37:30.123Z,99771.77
2018-08-24T03:39:57.079Z,99770.06
2018-08-24T03:42:24.067Z,99780.21
2018-08-24T03:44:50.964Z,99776.58
2018-08-24T03:47:17.949Z,99779.11
2018-08-24T03:49:44.934Z,99771.48
2018-08-24T03:52:11.868Z,99773.69
2018-08-24T03:54:38.819Z,99777.20
2018-08-24T03:57:05.869Z,99770.20
2018-08-24T03:59:32.847Z,99773.94
2018-08-24T04:02:07.972Z,99769.24
2018-08-24T04:04:34.956Z,99782.93
2018-08-24T04:07:01.900Z,99784.95
2018-08-24T04:09:28.863Z,99788.82
2018-08-24T04:11:55.827Z,99794.05
2018-08-24T04:14:22.790Z,99794.69
2018-08-24T04:16:55.419Z,99801.66
2018-08-24T04:19:27.841Z,99805.44
2018-08-24T04:21:55.012Z,99806.39
2018-08-24T04:24:23.027Z,99805.50
2018-08-24T04:26:51.473Z,99808.64
2018-08-24T04:29:18.480Z,99812.30
2018-08-24T04:31:46.454Z,99815.73
2018-08-24T04:34:13.384Z,99813.34
2018-08-24T04:36:41.371Z,99824.28
2018-08-24T04:39:09.827Z,99821.44
2018-08-24T04:41:37.107Z,99829.23
2018-08-24T04:44:05.783Z,99829.73
2018-08-24T04:46:33.177Z,99829.90
2018-08-24T04:49:00.143Z,99826.75
2018-08-24T04:51:27.583Z,99831.05
2018-08-24T04:53:54.471Z,99839.73
2018-08-24T04:56:21.457Z,99844.17
2018-08-24T04:58:50.463Z,99846.03
2018-08-24T05:01:17.494Z,99849.98
2018-08-24T05:03:44.707Z,99853.81
2018-08-24T05:06:11.629Z,99853.12
2018-08-24T05:08:38.595Z,99854.41
2018-08-24T05:11:05.515Z,99859.89
2018-08-24T05:13:32.487Z,99858.39
2018-08-24T05:15:59.835Z,99849.14
2018-08-24T05:18:26.807Z,99854.42
2018-08-24T05:20:53.771Z,99850.98
2018-08-24T05:23:20.727Z,99860.16
2018-08-24T05:25:47.688Z,99861.41
2018-08-24T05:28:14.913Z,99859.66
2018-08-24T05:30:42.933Z,99866.25
2018-08-24T05:33:10.492Z,99867.64
2018-08-24T05:35:37.560Z,99875.35
2018-08-24T05:38:04.928Z,99879.95
2018-08-24T05:40:31.912Z,99874.62
2018-08-24T05:42:58.813Z,99875.66
2018-08-24T05:45:25.823Z,99882.75
2018-08-24T05:47:52.767Z,99880.80
2018-08-24T05:50:20.236Z,99880.55
2018-08-24T05:52:47.175Z,99880.40
2018-08-24T05:55:15.183Z,99878.86
2018-08-24T05:57:42.152Z,99884.52
2018-08-24T06:00:10.267Z,99883.73
2018-08-24T06:02:37.166Z,99885.61
2018-08-24T06:05:04.101Z,99887.88
2018-08-24T06:07:31.087Z,99888.05
2018-08-24T06:09:58.800Z,99883.47
2018-08-24T06:12:25.720Z,99885.61
2018-08-24T06:14:52.729Z,99888.80
2018-08-24T06:17:25.330Z,99885.16
2018-08-24T06:19:53.360Z,99885.94
2018-08-24T06:22:20.312Z,99891.91
2018-08-24T06:24:47.313Z,99887.21
2018-08-24T06:27:16.791Z,99893.45
2018-08-24T06:29:44.263Z,99896.39
2018-08-24T06:32:11.865Z,99893.95
2018-08-24T06:34:38.782Z,99900.65
2018-08-24T06:37:05.956Z,99906.36
2018-08-24T06:39:32.773Z,99907.15
2018-08-24T06:42:00.349Z,99903.21
2018-08-24T06:44:27.738Z,99906.83
2018-08-24T06:46:54.696Z,99907.98
2018-08-24T06:49:21.623Z,99904.16
2018-08-24T06:51:49.226Z,99906.97
2018-08-24T06:54:16.183Z,99907.89
2018-08-24T06:56:43.140Z,99906.95
2018-08-24T06:59:10.144Z,99905.42
2018-08-24T07:01:37.052Z,99902.85
2018-08-24T07:04:04.036Z,99909.81
2018-08-24T07:06:32.837Z,99908.78
2018-08-24T07:08:59.783Z,99911.06
2018-08-24T07:11:28.815Z,99918.00
2018-08-24T07:13:57.384Z,99907.72
2018-08-24T07:16:24.327Z,99907.84
2018-08-24T07:18:51.269Z,99916.17
2018-08-24T07:21:18.864Z,99921.80
2018-08-24T07:23:45.803Z,99920.95
2018-08-24T07:26:12.796Z,99916.37
2018-08-24T07:28:39.906Z,99918.20
2018-08-24T07:31:07.156Z,99926.81
2018-08-24T07:33:34.072Z,99929.36
2018-08-24T07:36:01.013Z,99929.61
2018-08-24T07:38:27.967Z,99934.07
2018-08-24T07:40:54.941Z,99936.42
2018-08-24T07:43:22.919Z,99937.39
2018-08-24T07:45:51.910Z,99938.56
2018-08-24T07:48:20.899Z,99946.77
2018-08-24T07:50:47.903Z,99948.00
2018-08-24T07:53:14.839Z,99952.88
2018-08-24T07:55:41.819Z,99953.66
2018-08-24T07:58:08.764Z,99960.07
2018-08-24T08:00:35.845Z,99964.16
2018-08-24T08:03:02.776Z,99971.22
2018-08-24T08:05:29.766Z,99972.23
2018-08-24T08:07:57.322Z,99977.52
2018-08-24T08:10:29.020Z,99977.89
2018-08-24T08:12:56.008Z,99977.41
2018-08-24T08:15:23.028Z,99969.05
2018-08-24T08:17:50.866Z,99973.23
2018-08-24T08:20:17.804Z,99969.78
2018-08-24T08:22:46.822Z,99968.86
2018-08-24T08:25:13.837Z,99976.87
2018-08-24T08:27:40.750Z,99979.42
2018-08-24T08:30:11.367Z,99978.72
2018-08-24T08:32:38.378Z,99979.75
2018-08-24T08:35:05.331Z,99974.09
2018-08-24T08:37:32.262Z,99981.72
2018-08-24T08:40:03.839Z,99980.32
2018-08-24T08:42:30.858Z,99980.54
2018-08-24T08:44:59.057Z,99988.11
2018-08-24T08:47:26.051Z,99996.75
2018-08-24T08:49:53.130Z,100007.23
2018-08-24T08:52:20.060Z,100007.38
2018-08-24T08:54:46.998Z,100012.78
2018-08-24T08:57:14.891Z,100016.55
2018-08-24T08:59:42.867Z,100023.03
2018-08-24T09:02:10.626Z,100026.63
2018-08-24T09:04:38.300Z,100027.55
2018-08-24T09:07:07.958Z,100035.11
2018-08-24T09:09:36.429Z,100031.22
2018-08-24T09:12:03.399Z,100032.84
2018-08-24T09:14:30.339Z,100030.84
2018-08-24T09:16:58.348Z,100039.95
2018-08-24T09:19:37.236Z,100041.28
2018-08-24T09:22:09.871Z,100052.82
2018-08-24T09:24:44.163Z,100045.02
2018-08-24T09:27:16.979Z,100042.77
2018-08-24T09:29:43.987Z,100049.38
2018-08-24T09:32:10.932Z,100050.31
2018-08-24T09:34:37.986Z,100050.73
2018-08-24T09:37:24.614Z,100054.59
2018-08-24T09:39:51.499Z,100051.93
2018-08-24T09:42:19.434Z,100050.89
2018-08-24T09:44:46.335Z,100055.09
2018-08-24T09:47:19.116Z,100050.45
2018-08-24T09:49:46.027Z,100049.38
2018-08-24T09:52:18.825Z,100059.69
2018-08-24T09:54:45.788Z,100051.91
2018-08-24T09:57:12.768Z,100061.27
2018-08-24T09:59:39.709Z,100064.06
2018-08-24T10:02:14.319Z,100062.42
2018-08-24T10:04:47.102Z,100054.62
2018-08-24T10:07:24.299Z,100049.18
2018-08-24T10:09:51.311Z,100053.94
2018-08-24T10:12:18.244Z,100054.45
2018-08-24T10:14:45.214Z,100066.13
2018-08-24T10:17:13.215Z,100072.52
2018-08-24T10:19:40.984Z,100076.67
2018-08-24T10:22:08.012Z,100068.92
2018-08-24T10:24:35.906Z,100065.59
2018-08-24T10:27:02.869Z,100072.88
2018-08-24T10:29:29.869Z,100062.95
2018-08-24T10:31:57.253Z,100064.41
2018-08-24T10:34:24.244Z,100065.67
2018-08-24T10:36:51.201Z,100069.67
2018-08-24T10:39:18.111Z,100068.22
2018-08-24T10:41:45.947Z,100072.06
2018-08-24T10:44:12.903Z,100073.52
2018-08-24T10:46:39.876Z,100067.69
2018-08-24T10:49:06.875Z,100073.08
2018-08-24T10:51:34.831Z,100079.27
2018-08-24T10:54:01.732Z,100076.55
2018-08-24T10:56:28.704Z,100073.86
2018-08-24T10:58:55.772Z,100081.26
2018-08-24T11:01:22.703Z,100092.26
2018-08-24T11:03:49.691Z,100094.09
2018-08-24T11:06:20.445Z,100077.51
2018-08-24T11:08:47.381Z,100079.06
2018-08-24T11:11:14.351Z,100082.70
2018-08-24T11:13:41.267Z,100071.69
2018-08-24T11:16:08.288Z,100067.36
2018-08-24T11:18:35.248Z,100072.23
2018-08-24T11:21:02.220Z,100081.97
2018-08-24T11:23:29.198Z,100085.91
2018-08-24T11:25:56.246Z,100071.98
2018-08-24T11:28:25.003Z,100067.42
2018-08-24T11:30:51.955Z,100073.42
2018-08-24T11:33:21.552Z,100076.48
2018-08-24T11:35:48.488Z,100079.55
2018-08-24T11:38:15.471Z,100074.55
2018-08-24T11:40:42.460Z,100078.70
2018-08-24T11:43:09.399Z,100090.07
2018-08-24T11:45:36.343Z,100094.03
2018-08-24T11:48:03.343Z,100099.60
2018-08-24T11:50:30.255Z,100098.79
2018-08-24T11:52:57.214Z,100099.73
2018-08-24T11:55:24.142Z,100097.06
2018-08-24T11:57:51.153Z,100105.89
2018-08-24T12:00:18.119Z,100098.30
2018-08-24T12:02:45.070Z,100108.95
2018-08-24T12:05:12.012Z,100099.00
2018-08-24T12:07:38.932Z,100091.45
2018-08-24T12:10:06.966Z,100084.25
2018-08-24T12:12:33.937Z,100091.20
2018-08-24T12:15:00.879Z,100098.08
2018-08-24T12:17:31.383Z,100093.05
2018-08-24T12:19:59.008Z,100094.02
2018-08-24T12:22:25.967Z,100102.53
2018-08-24T12:24:53.276Z,100087.19
2018-08-24T12:27:20.248Z,100089.82
2018-08-24T12:29:47.224Z,100089.82
2018-08-24T12:32:15.192Z,100094.22
2018-08-24T12:34:44.277Z,100090.20
2018-08-24T12:37:12.778Z,100081.73
2018-08-24T12:39:40.555Z,100087.82
2018-08-24T12:42:08.628Z,100087.94
2018-08-24T12:44:35.672Z,100076.44
2018-08-24T12:47:03.818Z,100069.92
2018-08-24T12:49:30.964Z,100077.91
2018-08-24T12:51:57.971Z,100077.31
2018-08-24T12:54:24.876Z,100071.95
2018-08-24T12:56:52.973Z,100072.16
2018-08-24T12:59:20.384Z,100063.09
2018-08-24T13:01:48.495Z,100061.59
2018-08-24T13:04:15.468Z,100059.34
2018-08-24T13:06:43.068Z,100061.56
2018-08-24T13:09:10.007Z,100047.68
2018-08-24T13:11:37.049Z,100061.02
2018-08-24T13:14:04.027Z,100043.89
2018-08-24T13:16:33.033Z,100049.23
2018-08-24T13:18:59.987Z,100044.34
2018-08-24T13:21:26.998Z,100040.30
2018-08-24T13:23:53.927Z,100044.73
2018-08-24T13:26:21.604Z,100041.12
2018-08-24T13:28:48.523Z,100028.96
2018-08-24T13:31:15.499Z,100035.64
2018-08-24T13:33:42.480Z,100016.40
2018-08-24T13:36:09.477Z,100020.78
2018-08-24T13:38:37.492Z,100019.13
2018-08-24T13:41:04.587Z,100021.11
2018-08-24T13:43:31.507Z,100018.13
2018-08-24T13:45:58.452Z,100012.96
2018-08-24T13:48:25.416Z,100010.67
2018-08-24T13:50:52.359Z,100003.33
2018-08-24T13:53:19.424Z,99998.81
2018-08-24T13:55:46.392Z,100000.20
2018-08-24T13:58:13.372Z,99991.27
2018-08-24T14:00:42.365Z,99989.39
2018-08-24T14:03:09.320Z,99993.10
2018-08-24T14:05:36.256Z,99981.00
2018-08-24T14:08:03.301Z,99984.27
2018-08-24T14:10:31.338Z,99986.75
2018-08-24T14:12:58.301Z,99985.55
2018-08-24T14:15:25.249Z,99988.21
2018-08-24T14:17:53.503Z,99982.56
2018-08-24T14:20:21.695Z,99981.64
2018-08-24T14:22:48.667Z,99980.39
2018-08-24T14:25:19.003Z,99975.73
2018-08-24T14:27:45.952Z,99974.30
2018-08-24T14:30:12.962Z,99980.91
2018-08-24T14:32:39.974Z,99986.29
2018-08-24T14:35:07.239Z,99991.91
2018-08-24T14:37:35.271Z,99979.98
2018-08-24T14:40:02.289Z,99975.22
2018-08-24T14:42:29.232Z,99973.48
2018-08-24T14:44:56.184Z,99967.36
2018-08-24T14:47:23.193Z,99972.09
2018-08-24T14:49:50.412Z,99968.91
2018-08-24T14:52:17.392Z,99969.73
2018-08-24T14:54:44.356Z,99967.57
2018-08-24T14:57:11.295Z,99971.16
2018-08-24T14:59:38.282Z,99961.91
2018-08-24T15:02:05.199Z,99971.95
2018-08-24T15:04:32.340Z,99962.08
2018-08-24T15:06:59.228Z,99963.10
2018-08-24T15:09:26.185Z,99966.41
2018-08-24T15:11:53.132Z,99964.50
2018-08-24T15:14:20.119Z,99974.19
2018-08-24T15:16:47.121Z,99978.11
2018-08-24T15:19:14.238Z,99978.96
2018-08-24T15:21:41.170Z,99969.94
2018-08-24T15:24:09.548Z,99973.56
2018-08-24T15:26:36.509Z,99967.84
2018-08-24T15:29:03.579Z,99972.65
2018-08-24T15:31:30.531Z,99973.27
2018-08-24T15:33:57.472Z,99969.94
2018-08-24T15:36:24.460Z,99972.23
2018-08-24T15:38:51.527Z,99965.56
2018-08-24T15:41:18.490Z,99971.98
2018-08-24T15:43:45.458Z,99967.61
2018-08-24T15:46:13.125Z,99974.62
2018-08-24T15:48:40.074Z,99976.42
2018-08-24T15:51:07.038Z,99967.84
2018-08-24T15:53:33.976Z,99970.37
2018-08-24T15:56:01.033Z,99973.12
2018-08-24T15:58:27.992Z,99962.49
2018-08-24T16:00:54.947Z,99959.70
2018-08-24T16:03:21.892Z,99959.86
2018-08-24T16:05:48.829Z,99955.73
2018-08-24T16:08:15.812Z,99955.89
2018-08-24T16:10:42.767Z,99944.66
2018-08-24T16:13:09.727Z,99939.15
2018-08-24T16:15:36.699Z,99941.13
2018-08-24T16:18:09.315Z,99940.61
2018-08-24T16:20:37.256Z,99926.30
2018-08-24T16:23:04.493Z,99937.94
2018-08-24T16:25:31.535Z,99933.13
2018-08-24T16:27:58.416Z,99932.20
2018-08-24T16:30:25.393Z,99929.89
2018-08-24T16:32:52.352Z,99933.93
2018-08-24T16:35:19.319Z,99933.93
2018-08-24T16:37:46.283Z,99938.11
2018-08-24T16:40:13.252Z,99945.59
2018-08-24T16:42:40.187Z,99942.91
2018-08-24T16:45:08.191Z,99947.02
2018-08-24T16:47:35.212Z,99944.38
2018-08-24T16:50:02.232Z,99942.77
2018-08-24T16:52:29.194Z,99942.07
2018-08-24T16:54:56.104Z,99949.22
2018-08-24T16:57:23.076Z,99946.77
2018-08-24T16:59:51.036Z,99944.49
2018-08-24T17:02:17.970Z,99944.74
2018-08-24T17:04:44.958Z,99942.02
2018-08-24T17:07:11.912Z,99947.82
2018-08-24T17:09:38.904Z,99949.19
2018-08-24T17:12:05.828Z,99948.06
2018-08-24T17:14:32.811Z,99953.41
2018-08-24T17:16:59.737Z,99951.86
2018-08-24T17:19:28.752Z,99951.91
2018-08-24T17:21:55.685Z,99952.59
2018-08-24T17:24:22.812Z,99949.58
2018-08-24T17:26:49.716Z,99952.01
2018-08-24T17:29:16.671Z,99947.27
2018-08-24T17:31:43.615Z,99949.95
2018-08-24T17:34:10.604Z,99952.16
2018-08-24T17:36:37.535Z,99946.51
2018-08-24T17:39:07.724Z,99942.98
2018-08-24T17:41:34.640Z,99939.78
2018-08-24T17:44:01.579Z,99941.84
2018-08-24T17:46:28.537Z,99939.94
2018-08-24T17:48:55.533Z,99937.52
2018-08-24T17:51:22.495Z,99945.51
2018-08-24T17:53:49.448Z,99946.17
2018-08-24T17:56:16.364Z,99951.88
2018-08-24T17:58:44.284Z,99950.17
2018-08-24T18:01:15.008Z,99962.98
2018-08-24T18:03:41.975Z,99955.80
2018-08-24T18:06:08.935Z,99956.29
2018-08-24T18:08:35.902Z,99957.23
2018-08-24T18:11:02.862Z,99963.56
2018-08-24T18:13:29.836Z,99957.23
2018-08-24T18:15:56.943Z,99961.02
2018-08-24T18:18:23.919Z,99959.23
2018-08-24T18:20:51.949Z,99958.42
2018-08-24T18:23:18.855Z,99963.70
2018-08-24T18:25:46.755Z,99966.94
2018-08-24T18:28:13.670Z,99965.40
2018-08-24T18:30:40.558Z,99964.50
2018-08-24T18:33:08.550Z,99966.45
2018-08-24T18:35:35.500Z,99969.39
2018-08-24T18:38:05.234Z,99971.76
2018-08-24T18:40:32.832Z,99980.78
2018-08-24T18:42:59.747Z,99970.44
2018-08-24T18:45:26.718Z,99972.78
2018-08-24T18:47:53.641Z,99978.56
2018-08-24T18:50:20.618Z,99993.27
2018-08-24T18:52:49.612Z,99993.95
2018-08-24T18:55:16.567Z,99993.56
2018-08-24T18:57:43.575Z,99992.56
2018-08-24T19:00:10.459Z,100004.13
2018-08-24T19:02:37.467Z,100001.39
2018-08-24T19:05:14.748Z,100005.74
2018-08-24T19:07:44.693Z,100011.30
2018-08-24T19:10:11.615Z,100010.89
2018-08-24T19:12:40.240Z,100009.42
2018-08-24T19:15:11.191Z,100015.53
2018-08-24T19:17:49.951Z,100015.84
2018-08-24T19:20:22.604Z,100025.98
2018-08-24T19:22:49.584Z,100029.41
2018-08-24T19:25:16.547Z,100033.81
2018-08-24T19:27:49.165Z,100041.72
2018-08-24T19:30:21.747Z,100040.10
2018-08-24T19:32:48.761Z,100046.09
2018-08-24T19:35:15.616Z,100044.16
2018-08-24T19:37:42.572Z,100051.97
2018-08-24T19:40:16.335Z,100049.73
2018-08-24T19:42:43.336Z,100050.35
2018-08-24T19:45:10.312Z,100052.26
2018-08-24T19:47:43.513Z,100052.07
2018-08-24T19:50:10.476Z,100051.93
2018-08-24T19:52:37.467Z,100048.48
2018-08-24T19:55:04.473Z,100050.19
2018-08-24T19:57:37.008Z,100058.37
2018-08-24T20:00:03.978Z,100059.38
2018-08-24T20:02:30.840Z,100062.59
2018-08-24T20:04:57.768Z,100059.18
2018-08-24T20:07:31.278Z,100056.55
2018-08-24T20:10:07.456Z,100066.64
2018-08-24T20:12:34.316Z,100059.31
2018-08-24T20:15:07.051Z,100061.31
2018-08-24T20:17:33.913Z,100062.78
2018-08-24T20:20:00.908Z,100068.96
2018-08-24T20:22:27.877Z,100064.77
2018-08-24T20:24:54.835Z,100060.67
2018-08-24T20:27:21.787Z,100059.67
2018-08-24T20:29:50.795Z,100067.22
2018-08-24T20:32:17.807Z,100070.80
2018-08-24T20:34:45.008Z,100071.50
2018-08-24T20:37:12.239Z,100065.39
2018-08-24T20:39:41.039Z,100070.89
2018-08-24T20:42:07.999Z,100064.34
2018-08-24T20:44:35.948Z,100065.55
2018-08-24T20:47:02.827Z,100060.29
2018-08-24T20:49:32.790Z,100058.98
2018-08-24T20:51:59.755Z,100060.29
2018-08-24T20:54:28.736Z,100064.11
2018-08-24T20:56:55.613Z,100056.31
2018-08-24T20:59:22.563Z,100058.63
2018-08-24T21:01:50.744Z,100051.41
2018-08-24T21:04:17.827Z,100048.95
2018-08-24T21:06:44.659Z,100051.96
2018-08-24T21:09:11.635Z,100054.41
2018-08-24T21:11:38.569Z,100054.83
2018-08-24T21:14:06.461Z,100058.27
2018-08-24T21:16:33.483Z,100056.80
2018-08-24T21:19:00.447Z,100068.44
2018-08-24T21:21:27.443Z,100056.73
2018-08-24T21:23:54.402Z,100060.37
2018-08-24T21:26:21.359Z,100060.56
2018-08-24T21:28:48.258Z,100060.28
2018-08-24T21:31:15.273Z,100066.97
2018-08-24T21:33:42.211Z,100066.12
2018-08-24T21:36:10.187Z,100064.91
2018-08-24T21:38:37.139Z,100068.53
2018-08-24T21:41:04.803Z,100068.16
2018-08-24T21:43:31.786Z,100062.36
2018-08-24T21:45:58.832Z,100068.47
2018-08-24T21:48:25.713Z,100072.47
2018-08-24T21:50:52.631Z,100074.97
2018-08-24T21:53:19.592Z,100067.39
2018-08-24T21:55:47.417Z,100071.33
2018-08-24T21:58:14.365Z,100067.98
2018-08-24T22:00:42.075Z,100066.72
2018-08-24T22:03:09.990Z,100068.79
2018-08-24T22:05:36.962Z,100069.52
2018-08-24T22:08:03.911Z,100068.88
2018-08-24T22:10:30.884Z,100070.52
2018-08-24T22:12:57.815Z,100069.68
2018-08-24T22:15:24.811Z,100068.34
2018-08-24T22:17:52.083Z,100073.15
2018-08-24T22:20:19.072Z,100068.92
2018-08-24T22:22:46.085Z,100067.03
2018-08-24T22:25:14.056Z,100063.16
2018-08-24T22:27:43.059Z,100057.72
2018-08-24T22:30:10.016Z,100055.23
2018-08-24T22:32:38.003Z,100051.34
2018-08-24T22:35:04.920Z,100055.80
2018-08-24T22:37:31.915Z,100043.09
2018-08-24T22:39:58.943Z,100047.16
2018-08-24T22:42:27.909Z,100048.35
2018-08-24T22:44:54.796Z,100050.90
2018-08-24T22:47:21.823Z,100056.48
2018-08-24T22:49:49.377Z,100053.27
2018-08-24T22:52:16.336Z,100052.45
2018-08-24T22:54:43.246Z,100049.25
2018-08-24T22:57:13.330Z,100043.14
2018-08-24T22:59:40.243Z,100042.57
2018-08-24T23:02:07.959Z,100044.94
2018-08-24T23:04:34.909Z,100043.48
2018-08-24T23:07:01.856Z,100043.14
2018-08-24T23:09:28.807Z,100042.80
2018-08-24T23:11:55.762Z,100037.64
2018-08-24T23:14:23.347Z,100038.08
2018-08-24T23:16:50.275Z,100035.45
2018-08-24T23:19:17.243Z,100040.20
2018-08-24T23:21:44.919Z,100038.09
2018-08-24T23:24:11.884Z,100037.84
2018-08-24T23:26:39.871Z,100041.16
2018-08-24T23:29:06.816Z,100039.88
2018-08-24T23:31:33.803Z,100038.60
2018-08-24T23:34:00.812Z,100036.20
2018-08-24T23:36:28.409Z,100033.36
2018-08-24T23:38:55.428Z,100033.02
2018-08-24T23:41:22.508Z,100038.07
2018-08-24T23:43:49.429Z,100038.88
2018-08-24T23:46:16.426Z,100039.90
2018-08-24T23:48:43.446Z,100044.37
2018-08-24T23:51:10.348Z,100034.48
2018-08-24T23:53:37.319Z,100032.78
2018-08-24T23:56:04.508Z,100041.01
2018-08-24T23:58:31.495Z,100036.66
